sensor_id;sensor_type;location;lat;lon;timestamp;temperature;humidity
21883;DHT22;11106;47.864;13.054;2023-09-12T00:02:44;17.70;99.90
21883;DHT22;11106;47.864;13.054;2023-09-12T04:44:11;17.70;99.90
21883;DHT22;11106;47.864;13.054;2023-09-12T04:49:12;16.60;99.90
21883;DHT22;11106;47.864;13.054;2023-09-12T04:54:13;16.50;99.90
21883;DHT22;11106;47.864;13.054;2023-09-12T04:59:13;16.50;99.90
21883;DHT22;11106;47.864;13.054;2023-09-12T05:04:15;16.50;99.90
21883;DHT22;11106;47.864;13.054;2023-09-12T05:09:15;16.60;99.90
21883;DHT22;11106;47.864;13.054;2023-09-12T05:14:16;16.60;99.90
21883;DHT22;11106;47.864;13.054;2023-09-12T05:19:17;16.60;99.90
21883;DHT22;11106;47.864;13.054;2023-09-12T05:24:17;16.70;99.90
21883;DHT22;11106;47.864;13.054;2023-09-12T05:44:21;16.70;99.90
21883;DHT22;11106;47.864;13.054;2023-09-12T05:49:21;19.50;99.90
21883;DHT22;11106;47.864;13.054;2023-09-12T05:54:22;20.80;99.90
21883;DHT22;11106;47.864;13.054;2023-09-12T05:59:23;22.20;99.90
21883;DHT22;11106;47.864;13.054;2023-09-12T06:04:23;24.90;99.90
21883;DHT22;11106;47.864;13.054;2023-09-12T06:09:24;25.10;99.90
21883;DHT22;11106;47.864;13.054;2023-09-12T16:21:50;29.00;93.40
21883;DHT22;11106;47.864;13.054;2023-09-12T16:26:50;27.30;99.90
21883;DHT22;11106;47.864;13.054;2023-09-12T16:31:51;27.00;99.90
21883;DHT22;11106;47.864;13.054;2023-09-12T16:36:52;26.90;99.90
21883;DHT22;11106;47.864;13.054;2023-09-12T16:41:53;26.70;99.90
21883;DHT22;11106;47.864;13.054;2023-09-12T16:46:54;26.50;99.90
21883;DHT22;11106;47.864;13.054;2023-09-12T16:51:55;26.40;99.90
21883;DHT22;11106;47.864;13.054;2023-09-12T16:56:55;26.10;99.90
21883;DHT22;11106;47.864;13.054;2023-09-12T17:01:56;25.90;99.90
21883;DHT22;11106;47.864;13.054;2023-09-12T17:06:57;25.70;99.90
21883;DHT22;11106;47.864;13.054;2023-09-12T17:11:58;25.40;99.90
21883;DHT22;11106;47.864;13.054;2023-09-12T17:16:59;25.20;99.90
21883;DHT22;11106;47.864;13.054;2023-09-12T17:22:00;25.00;99.90
21883;DHT22;11106;47.864;13.054;2023-09-12T17:27:01;24.90;99.90
21883;DHT22;11106;47.864;13.054;2023-09-12T17:37:12;24.50;99.90
21883;DHT22;11106;47.864;13.054;2023-09-12T17:42:12;24.40;99.90
21883;DHT22;11106;47.864;13.054;2023-09-12T17:47:13;24.10;99.90
21883;DHT22;11106;47.864;13.054;2023-09-12T17:52:14;23.70;99.90
21883;DHT22;11106;47.864;13.054;2023-09-12T17:57:15;23.70;99.90
21883;DHT22;11106;47.864;13.054;2023-09-12T18:02:16;23.50;99.90
21883;DHT22;11106;47.864;13.054;2023-09-12T18:07:16;23.30;99.90
21883;DHT22;11106;47.864;13.054;2023-09-12T18:12:17;23.20;99.90
21883;DHT22;11106;47.864;13.054;2023-09-12T18:17:18;23.10;99.90
21883;DHT22;11106;47.864;13.054;2023-09-12T18:22:19;22.90;99.90
21883;DHT22;11106;47.864;13.054;2023-09-12T18:27:19;22.80;99.90
21883;DHT22;11106;47.864;13.054;2023-09-12T18:32:20;22.60;99.90
21883;DHT22;11106;47.864;13.054;2023-09-12T18:37:23;22.50;99.90
21883;DHT22;11106;47.864;13.054;2023-09-12T18:42:27;22.30;99.90
21883;DHT22;11106;47.864;13.054;2023-09-12T18:47:29;22.10;99.90
21883;DHT22;11106;47.864;13.054;2023-09-12T18:52:31;22.00;99.90
21883;DHT22;11106;47.864;13.054;2023-09-12T18:57:32;21.90;99.90
21883;DHT22;11106;47.864;13.054;2023-09-12T19:02:33;21.80;99.90
21883;DHT22;11106;47.864;13.054;2023-09-12T19:07:33;21.70;99.90
21883;DHT22;11106;47.864;13.054;2023-09-12T19:12:35;21.60;99.90
21883;DHT22;11106;47.864;13.054;2023-09-12T19:17:35;21.50;99.90
21883;DHT22;11106;47.864;13.054;2023-09-12T19:22:36;21.40;99.90
21883;DHT22;11106;47.864;13.054;2023-09-12T19:27:38;21.30;99.90
21883;DHT22;11106;47.864;13.054;2023-09-12T19:32:41;21.20;99.90
21883;DHT22;11106;47.864;13.054;2023-09-12T19:37:41;21.20;99.90
21883;DHT22;11106;47.864;13.054;2023-09-12T19:42:42;21.10;99.90
21883;DHT22;11106;47.864;13.054;2023-09-12T19:47:43;21.00;99.90
21883;DHT22;11106;47.864;13.054;2023-09-12T19:52:44;20.80;99.90
21883;DHT22;11106;47.864;13.054;2023-09-12T19:57:44;20.80;99.90
21883;DHT22;11106;47.864;13.054;2023-09-12T20:02:46;20.70;99.90
21883;DHT22;11106;47.864;13.054;2023-09-12T20:07:50;20.70;99.90
21883;DHT22;11106;47.864;13.054;2023-09-12T20:12:51;20.60;99.90
21883;DHT22;11106;47.864;13.054;2023-09-12T20:17:51;20.60;99.90
21883;DHT22;11106;47.864;13.054;2023-09-12T20:23:04;20.60;99.90
21883;DHT22;11106;47.864;13.054;2023-09-12T20:28:05;20.50;99.90
